createdAt,value
2022-10-31T00:01:30.127Z,7.32
2022-10-31T00:03:57.444Z,8.25
2022-10-31T00:06:25.721Z,9.45
2022-10-31T00:09:05.020Z,8.65
2022-10-31T00:11:32.780Z,8.32
2022-10-31T00:14:00.757Z,10.52
2022-10-31T00:16:29.305Z,9.32
2022-10-31T00:19:00.820Z,9.25
2022-10-31T00:21:29.768Z,10.45
2022-10-31T00:23:58.657Z,9.98
2022-10-31T00:26:28.765Z,10.88
2022-10-31T00:28:56.011Z,11.32
2022-10-31T00:31:23.351Z,8.82
2022-10-31T00:33:50.754Z,10.20
2022-10-31T00:36:21.596Z,10.93
2022-10-31T00:38:49.571Z,8.60
2022-10-31T00:41:18.857Z,9.77
2022-10-31T00:43:46.108Z,7.03
2022-10-31T00:46:14.707Z,11.15
2022-10-31T00:48:42.687Z,7.38
2022-10-31T00:51:11.156Z,9.73
2022-10-31T00:53:38.438Z,14.20
2022-10-31T00:56:06.651Z,8.88
2022-10-31T00:58:34.121Z,10.13
2022-10-31T01:01:02.673Z,5.80
2022-10-31T01:03:33.194Z,8.27
2022-10-31T01:06:11.318Z,8.73
2022-10-31T01:08:39.683Z,8.52
2022-10-31T01:11:20.264Z,15.93
2022-10-31T01:13:48.464Z,12.57
2022-10-31T01:16:21.871Z,8.45
2022-10-31T01:18:51.773Z,14.13
2022-10-31T01:21:29.233Z,7.28
2022-10-31T01:23:59.445Z,8.43
2022-10-31T01:26:31.664Z,9.90
2022-10-31T01:29:02.528Z,10.65
2022-10-31T01:31:33.395Z,13.27
2022-10-31T01:34:01.230Z,7.85
2022-10-31T01:36:39.409Z,10.73
2022-10-31T01:39:14.535Z,7.88
2022-10-31T01:41:49.130Z,7.63
2022-10-31T01:44:16.632Z,8.00
2022-10-31T01:47:06.660Z,13.30
2022-10-31T01:49:44.490Z,9.00
2022-10-31T01:52:17.803Z,11.50
2022-10-31T01:54:52.897Z,11.27
2022-10-31T01:57:21.349Z,9.38
2022-10-31T01:59:58.862Z,8.13
2022-10-31T02:02:27.952Z,9.43
2022-10-31T02:04:58.533Z,11.02
2022-10-31T02:07:37.977Z,13.80
2022-10-31T02:10:06.177Z,14.90
2022-10-31T02:12:35.757Z,12.40
2022-10-31T02:15:04.561Z,12.90
2022-10-31T02:17:32.927Z,12.55
2022-10-31T02:20:13.130Z,12.68
2022-10-31T02:23:28.452Z,12.85
2022-10-31T02:25:59.070Z,9.18
2022-10-31T02:29:02.821Z,11.43
2022-10-31T02:31:54.312Z,13.10
2022-10-31T02:34:38.751Z,16.83
2022-10-31T02:37:23.035Z,15.30
2022-10-31T02:40:39.389Z,15.02
2022-10-31T02:43:55.198Z,13.80
2022-10-31T02:46:55.425Z,18.05
2022-10-31T02:49:35.324Z,16.50
2022-10-31T02:52:02.623Z,17.73
2022-10-31T02:54:30.181Z,15.15
2022-10-31T02:57:08.777Z,16.45
2022-10-31T02:59:49.074Z,12.73
2022-10-31T03:02:37.269Z,16.33
2022-10-31T03:05:42.221Z,14.65
2022-10-31T03:08:39.359Z,12.27
2022-10-31T03:11:09.282Z,12.32
2022-10-31T03:14:19.077Z,11.93
2022-10-31T03:16:52.715Z,10.98
2022-10-31T03:19:40.274Z,14.98
2022-10-31T03:22:23.937Z,11.68
2022-10-31T03:24:53.849Z,7.22
2022-10-31T03:27:27.874Z,11.65
2022-10-31T03:29:59.586Z,13.80
2022-10-31T03:32:46.086Z,15.57
2022-10-31T03:35:17.298Z,13.50
2022-10-31T03:37:46.006Z,10.20
2022-10-31T03:40:17.630Z,15.90
2022-10-31T03:42:54.433Z,10.38
2022-10-31T03:45:28.645Z,15.90
2022-10-31T03:47:57.320Z,11.18
2022-10-31T03:50:35.084Z,14.77
2022-10-31T03:53:15.542Z,10.75
2022-10-31T03:56:17.632Z,9.95
2022-10-31T03:59:13.246Z,11.48
2022-10-31T04:01:48.523Z,13.13
2022-10-31T04:04:17.183Z,13.73
2022-10-31T04:06:47.257Z,12.32
2022-10-31T04:09:16.732Z,17.50
2022-10-31T04:11:51.443Z,18.38
2022-10-31T04:14:51.556Z,22.52
2022-10-31T04:17:22.807Z,16.08
2022-10-31T04:19:50.624Z,16.50
2022-10-31T04:22:18.769Z,19.02
2022-10-31T04:24:46.040Z,14.60
2022-10-31T04:27:15.945Z,16.08
2022-10-31T04:29:45.622Z,26.92
2022-10-31T04:32:16.107Z,14.98
2022-10-31T04:34:43.304Z,24.33
2022-10-31T04:37:11.715Z,18.05
2022-10-31T04:39:38.890Z,13.85
2022-10-31T04:42:34.985Z,18.02
2022-10-31T04:45:05.286Z,15.23
2022-10-31T04:47:34.935Z,18.50
2022-10-31T04:50:03.612Z,21.33
2022-10-31T04:52:31.329Z,17.92
2022-10-31T04:54:58.675Z,16.75
2022-10-31T04:57:49.501Z,19.23
2022-10-31T05:00:21.316Z,26.00
2022-10-31T05:02:53.451Z,21.25
2022-10-31T05:05:24.912Z,18.63
2022-10-31T05:07:53.512Z,20.88
2022-10-31T05:12:59.368Z,22.37
2022-10-31T05:15:30.019Z,15.50
2022-10-31T05:18:16.141Z,19.33
2022-10-31T05:21:01.638Z,17.98
2022-10-31T05:23:35.300Z,17.02
2022-10-31T05:26:02.765Z,23.42
2022-10-31T05:28:30.082Z,20.63
2022-10-31T05:30:58.026Z,15.55
2022-10-31T05:33:25.422Z,20.10
2022-10-31T05:36:11.233Z,20.45
2022-10-31T05:38:57.931Z,18.85
2022-10-31T05:41:27.232Z,20.60
2022-10-31T05:44:03.539Z,21.40
2022-10-31T05:49:20.401Z,17.38
2022-10-31T05:52:06.448Z,23.20
2022-10-31T05:54:40.444Z,17.70
2022-10-31T05:57:07.761Z,22.52
2022-10-31T05:59:35.370Z,20.40
2022-10-31T06:02:02.901Z,19.35
2022-10-31T06:04:56.217Z,21.35
2022-10-31T06:07:23.915Z,17.30
2022-10-31T06:09:51.367Z,19.55
2022-10-31T06:12:21.569Z,20.65
2022-10-31T06:15:22.547Z,18.90
2022-10-31T06:18:04.245Z,16.27
2022-10-31T06:20:35.827Z,14.88
2022-10-31T06:23:05.640Z,15.60
2022-10-31T06:25:34.286Z,17.40
2022-10-31T06:28:01.710Z,18.70
2022-10-31T06:30:42.064Z,14.35
2022-10-31T06:33:09.510Z,13.07
2022-10-31T06:35:39.664Z,14.52
2022-10-31T06:38:07.035Z,12.43
2022-10-31T06:40:38.699Z,14.13
2022-10-31T06:43:32.490Z,11.50
2022-10-31T06:46:17.162Z,11.10
2022-10-31T06:48:57.973Z,11.27
2022-10-31T06:51:49.763Z,10.00
2022-10-31T06:54:21.141Z,14.40
2022-10-31T06:56:49.140Z,13.80
2022-10-31T06:59:17.161Z,15.73
2022-10-31T07:02:06.698Z,10.25
2022-10-31T07:04:34.760Z,6.72
2022-10-31T07:07:02.224Z,9.32
2022-10-31T07:09:30.428Z,12.35
2022-10-31T07:12:01.793Z,10.00
2022-10-31T07:14:30.558Z,9.18
2022-10-31T07:16:57.771Z,11.95
2022-10-31T07:19:32.562Z,10.93
2022-10-31T07:21:59.816Z,7.55
2022-10-31T07:24:29.424Z,7.35
2022-10-31T07:26:56.615Z,7.13
2022-10-31T07:29:23.841Z,8.85
2022-10-31T07:31:51.283Z,8.40
2022-10-31T07:34:25.103Z,8.82
2022-10-31T07:37:11.008Z,8.73
2022-10-31T07:39:38.295Z,11.70
2022-10-31T07:42:06.971Z,9.43
2022-10-31T07:44:35.149Z,9.27
2022-10-31T07:47:22.793Z,14.80
2022-10-31T07:50:11.305Z,11.38
2022-10-31T07:53:10.066Z,13.35
2022-10-31T07:55:51.723Z,9.50
2022-10-31T07:58:20.230Z,11.90
2022-10-31T08:00:48.996Z,14.38
2022-10-31T08:03:26.609Z,12.15
2022-10-31T08:06:12.368Z,8.68
2022-10-31T08:08:59.890Z,10.23
2022-10-31T08:11:27.816Z,8.35
2022-10-31T08:13:55.099Z,10.57
2022-10-31T08:16:22.341Z,8.63
2022-10-31T08:19:00.115Z,10.43
2022-10-31T08:21:29.414Z,11.30
2022-10-31T08:23:57.750Z,11.98
2022-10-31T08:26:25.826Z,9.50
2022-10-31T08:28:55.813Z,11.07
2022-10-31T08:31:32.925Z,10.55
2022-10-31T08:34:39.648Z,11.05
2022-10-31T08:37:25.235Z,10.65
2022-10-31T08:39:55.047Z,7.50
2022-10-31T08:42:22.849Z,13.85
2022-10-31T08:44:50.255Z,12.20
2022-10-31T08:47:19.010Z,10.02
2022-10-31T08:49:46.243Z,11.95
2022-10-31T08:52:16.025Z,10.73
2022-10-31T08:54:44.744Z,9.10
2022-10-31T08:57:32.284Z,11.65
2022-10-31T09:00:00.132Z,8.85
2022-10-31T09:03:06.514Z,11.13
2022-10-31T09:05:35.088Z,8.52
2022-10-31T09:08:05.206Z,11.15
2022-10-31T09:10:35.199Z,13.27
2022-10-31T09:13:12.804Z,14.43
2022-10-31T09:15:50.907Z,8.48
2022-10-31T09:18:25.758Z,11.25
2022-10-31T09:21:00.840Z,14.63
2022-10-31T09:23:30.862Z,8.98
2022-10-31T09:26:02.546Z,10.98
2022-10-31T09:28:36.654Z,10.90
2022-10-31T09:31:10.143Z,12.05
2022-10-31T09:33:49.207Z,11.85
2022-10-31T09:36:35.351Z,13.73
2022-10-31T09:39:04.188Z,9.48
2022-10-31T09:44:52.780Z,11.23
2022-10-31T09:47:58.072Z,10.70
2022-10-31T09:51:00.024Z,11.88
2022-10-31T09:53:55.668Z,10.55
2022-10-31T09:56:26.346Z,10.52
2022-10-31T09:59:05.264Z,15.02
2022-10-31T10:01:50.688Z,14.18
2022-10-31T10:04:52.965Z,12.32
2022-10-31T10:07:40.608Z,12.73
2022-10-31T10:10:40.001Z,12.70
2022-10-31T10:13:50.387Z,14.18
2022-10-31T10:16:34.476Z,13.85
2022-10-31T10:19:45.331Z,17.05
2022-10-31T10:22:38.374Z,17.23
2022-10-31T10:25:37.765Z,15.20
2022-10-31T10:28:19.990Z,12.80
2022-10-31T10:30:57.914Z,13.75
2022-10-31T10:34:14.112Z,16.58
2022-10-31T10:37:29.600Z,11.73
2022-10-31T10:40:19.621Z,11.48
2022-10-31T10:43:20.249Z,10.55
2022-10-31T10:46:37.575Z,8.95
2022-10-31T10:49:10.502Z,13.18
2022-10-31T10:52:50.498Z,11.85
2022-10-31T10:55:42.899Z,9.27
2022-10-31T10:58:11.786Z,14.52
2022-10-31T11:00:48.511Z,10.25
2022-10-31T11:03:17.701Z,12.88
2022-10-31T11:05:53.248Z,9.63
2022-10-31T11:08:37.623Z,11.85
2022-10-31T11:11:32.984Z,14.13
2022-10-31T11:14:18.193Z,11.38
2022-10-31T11:16:50.434Z,10.75
2022-10-31T11:19:27.419Z,9.43
2022-10-31T11:21:55.162Z,17.17
2022-10-31T11:24:28.623Z,12.38
2022-10-31T11:27:16.115Z,8.65
2022-10-31T11:29:43.790Z,13.68
2022-10-31T11:32:28.601Z,9.27
2022-10-31T11:35:00.241Z,16.80
2022-10-31T11:37:36.814Z,10.95
2022-10-31T11:40:07.610Z,14.10
2022-10-31T11:42:42.036Z,12.40
2022-10-31T11:45:31.470Z,11.10
2022-10-31T11:50:43.031Z,12.30
2022-10-31T11:53:36.799Z,12.90
2022-10-31T11:56:17.297Z,11.18
2022-10-31T11:58:44.777Z,12.20
2022-10-31T12:01:28.678Z,14.10
2022-10-31T12:04:13.757Z,8.77
2022-10-31T12:06:51.125Z,10.73
2022-10-31T12:09:44.676Z,8.30
2022-10-31T12:12:48.294Z,11.13
2022-10-31T12:15:46.647Z,11.63
2022-10-31T12:18:34.769Z,11.07
2022-10-31T12:21:28.393Z,17.30
2022-10-31T12:24:18.969Z,11.85
2022-10-31T12:26:57.644Z,14.65
2022-10-31T12:29:33.548Z,12.60
2022-10-31T12:32:15.780Z,19.70
2022-10-31T12:34:52.816Z,14.68
2022-10-31T12:38:09.517Z,16.58
2022-10-31T12:41:01.828Z,15.40
2022-10-31T12:43:49.856Z,14.40
2022-10-31T12:46:59.471Z,15.73
2022-10-31T12:50:12.898Z,11.77
2022-10-31T12:53:31.249Z,15.05
2022-10-31T12:56:37.965Z,17.42
2022-10-31T12:59:34.899Z,16.70
2022-10-31T13:02:32.452Z,12.25
2022-10-31T13:05:34.923Z,16.42
2022-10-31T13:08:37.525Z,16.15
2022-10-31T13:11:35.411Z,20.35
2022-10-31T13:14:34.832Z,18.13
2022-10-31T13:17:03.191Z,16.58
2022-10-31T13:19:42.072Z,18.13
2022-10-31T13:22:19.506Z,18.05
2022-10-31T13:25:18.740Z,22.15
2022-10-31T13:27:57.685Z,20.03
2022-10-31T13:30:29.783Z,19.55
2022-10-31T13:33:00.227Z,12.52
2022-10-31T13:35:52.174Z,16.95
2022-10-31T13:38:31.864Z,14.35
2022-10-31T13:41:12.858Z,13.82
2022-10-31T13:44:04.584Z,10.43
2022-10-31T13:46:34.438Z,19.60
2022-10-31T13:49:02.276Z,21.65
2022-10-31T13:51:34.941Z,13.88
2022-10-31T13:54:21.467Z,16.15
2022-10-31T13:56:53.940Z,11.70
2022-10-31T13:59:25.135Z,10.30
2022-10-31T14:01:58.844Z,14.70
2022-10-31T14:04:37.871Z,16.08
2022-10-31T14:07:18.468Z,14.02
2022-10-31T14:10:17.765Z,18.10
2022-10-31T14:12:48.013Z,11.90
2022-10-31T14:15:29.658Z,15.40
2022-10-31T14:18:06.532Z,13.55
2022-10-31T14:20:51.580Z,11.60
2022-10-31T14:23:41.676Z,17.05
2022-10-31T14:26:31.142Z,12.60
2022-10-31T14:29:27.521Z,14.13
2022-10-31T14:32:16.860Z,11.00
2022-10-31T14:34:53.122Z,15.00
2022-10-31T14:37:38.155Z,11.50
2022-10-31T14:40:28.761Z,12.98
2022-10-31T14:43:26.778Z,12.45
2022-10-31T14:46:22.427Z,8.65
2022-10-31T14:49:08.065Z,11.43
2022-10-31T14:51:41.829Z,9.07
2022-10-31T14:54:44.103Z,16.70
2022-10-31T14:57:35.716Z,14.13
2022-10-31T15:00:16.302Z,13.50
2022-10-31T15:05:19.853Z,10.95
2022-10-31T15:07:57.106Z,16.95
2022-10-31T15:10:39.170Z,13.02
2022-10-31T15:13:33.085Z,12.55
2022-10-31T15:16:00.610Z,28.42
2022-10-31T15:18:29.866Z,100.72
2022-10-31T15:20:58.186Z,161.93
2022-10-31T15:23:32.831Z,72.80
2022-10-31T15:26:06.197Z,45.70
2022-10-31T15:28:33.645Z,39.90
2022-10-31T15:31:03.468Z,31.20
2022-10-31T15:33:45.263Z,31.08
2022-10-31T15:36:29.123Z,25.13
2022-10-31T15:38:58.878Z,24.05
2022-10-31T15:41:56.210Z,27.67
2022-10-31T15:44:34.588Z,22.83
2022-10-31T15:47:05.230Z,18.15
2022-10-31T15:49:43.258Z,16.15
2022-10-31T15:52:25.397Z,21.10
2022-10-31T15:54:56.970Z,17.20
2022-10-31T15:57:29.760Z,25.55
2022-10-31T15:59:57.405Z,32.03
2022-10-31T16:02:28.500Z,36.58
2022-10-31T16:05:03.540Z,30.67
2022-10-31T16:07:31.369Z,31.05
2022-10-31T16:10:00.837Z,28.05
2022-10-31T16:12:46.969Z,24.80
2022-10-31T16:15:20.595Z,26.23
2022-10-31T16:17:52.305Z,20.25
2022-10-31T16:20:29.882Z,24.40
2022-10-31T16:22:58.944Z,24.02
2022-10-31T16:25:35.112Z,21.08
2022-10-31T16:30:50.232Z,19.27
2022-10-31T16:33:38.682Z,16.90
2022-10-31T16:36:36.009Z,21.30
2022-10-31T16:39:04.673Z,15.52
2022-10-31T16:41:33.022Z,13.23
2022-10-31T16:44:04.805Z,20.63
2022-10-31T16:46:32.052Z,13.30
2022-10-31T16:48:59.191Z,15.77
2022-10-31T16:51:26.691Z,17.00
2022-10-31T16:53:54.574Z,20.48
2022-10-31T16:56:30.689Z,14.40
2022-10-31T16:58:59.340Z,15.35
2022-10-31T17:01:27.214Z,18.00
2022-10-31T17:03:54.573Z,28.33
2022-10-31T17:06:21.910Z,18.45
2022-10-31T17:08:49.174Z,20.73
2022-10-31T17:11:24.952Z,24.55
2022-10-31T17:13:53.268Z,25.42
2022-10-31T17:16:20.874Z,23.75
2022-10-31T17:18:48.282Z,19.63
2022-10-31T17:21:33.899Z,19.95
2022-10-31T17:24:01.194Z,20.95
2022-10-31T17:26:28.456Z,20.17
2022-10-31T17:28:56.302Z,23.38
2022-10-31T17:31:29.049Z,18.38
2022-10-31T17:34:02.204Z,24.20
2022-10-31T17:36:32.285Z,22.33
2022-10-31T17:39:00.331Z,19.63
2022-10-31T17:41:27.592Z,21.50
2022-10-31T17:43:59.856Z,20.40
2022-10-31T17:46:28.477Z,30.65
2022-10-31T17:48:55.796Z,28.92
2022-10-31T17:51:23.208Z,22.58
2022-10-31T17:53:50.567Z,20.73
2022-10-31T17:56:18.149Z,26.55
2022-10-31T17:58:45.933Z,23.13
2022-10-31T18:01:19.161Z,24.00
2022-10-31T18:03:46.579Z,20.75
2022-10-31T18:06:16.788Z,31.92
2022-10-31T18:08:44.699Z,27.95
2022-10-31T18:11:21.316Z,30.58
2022-10-31T18:13:48.555Z,34.70
2022-10-31T18:16:19.345Z,36.35
2022-10-31T18:18:54.712Z,26.70
2022-10-31T18:21:24.738Z,30.88
2022-10-31T18:23:56.855Z,26.27
2022-10-31T18:26:25.832Z,30.45
2022-10-31T18:28:54.024Z,26.23
2022-10-31T18:31:21.774Z,26.98
2022-10-31T18:33:49.138Z,27.25
2022-10-31T18:36:16.524Z,26.38
2022-10-31T18:38:47.307Z,24.50
2022-10-31T18:41:15.794Z,29.73
2022-10-31T18:43:43.394Z,43.90
2022-10-31T18:46:17.226Z,30.88
2022-10-31T18:48:45.869Z,30.48
2022-10-31T18:51:14.850Z,32.20
2022-10-31T18:53:42.187Z,30.33
2022-10-31T18:56:11.297Z,27.85
2022-10-31T18:58:38.597Z,32.38
2022-10-31T19:01:09.010Z,29.77
2022-10-31T19:03:36.676Z,29.58
2022-10-31T19:06:05.132Z,26.90
2022-10-31T19:08:33.289Z,31.90
2022-10-31T19:11:12.648Z,27.95
2022-10-31T19:13:41.994Z,27.13
2022-10-31T19:16:14.092Z,27.27
2022-10-31T19:18:43.142Z,25.35
2022-10-31T19:21:17.212Z,25.17
2022-10-31T19:23:45.934Z,32.28
2022-10-31T19:26:14.329Z,25.38
2022-10-31T19:28:42.325Z,30.45
2022-10-31T19:31:10.521Z,32.58
2022-10-31T19:33:37.958Z,36.05
2022-10-31T19:36:09.726Z,34.45
2022-10-31T19:38:39.213Z,30.05
2022-10-31T19:41:12.949Z,31.45
2022-10-31T19:43:40.897Z,32.63
2022-10-31T19:46:17.632Z,37.47
2022-10-31T19:48:55.728Z,34.88
2022-10-31T19:51:23.365Z,30.70
2022-10-31T19:53:50.794Z,36.30
2022-10-31T19:56:21.719Z,37.38
2022-10-31T19:58:49.190Z,32.67
2022-10-31T20:01:24.092Z,37.72
2022-10-31T20:03:52.298Z,35.30
2022-10-31T20:06:29.519Z,35.08
2022-10-31T20:08:57.613Z,34.08
2022-10-31T20:11:27.278Z,32.90
2022-10-31T20:13:59.110Z,36.77
2022-10-31T20:16:28.436Z,32.35
2022-10-31T20:18:56.601Z,39.40
2022-10-31T20:21:28.856Z,39.17
2022-10-31T20:24:01.956Z,31.42
2022-10-31T20:26:31.162Z,36.28
2022-10-31T20:29:00.255Z,35.20
2022-10-31T20:31:31.488Z,40.75
2022-10-31T20:33:58.935Z,37.63
2022-10-31T20:36:28.771Z,35.20
2022-10-31T20:38:56.205Z,32.92
2022-10-31T20:41:23.686Z,29.70
2022-10-31T20:43:51.134Z,34.92
2022-10-31T20:46:23.515Z,24.60
2022-10-31T20:48:52.394Z,24.80
2022-10-31T20:51:23.440Z,22.38
2022-10-31T20:53:53.243Z,25.77
2022-10-31T20:56:24.202Z,24.03
2022-10-31T20:58:51.969Z,24.70
2022-10-31T21:01:26.146Z,26.33
2022-10-31T21:03:54.124Z,24.75
2022-10-31T21:06:23.476Z,23.88
2022-10-31T21:08:52.154Z,23.80
2022-10-31T21:11:22.327Z,23.85
2022-10-31T21:13:50.787Z,21.20
2022-10-31T21:16:28.037Z,21.17
2022-10-31T21:18:55.878Z,20.92
2022-10-31T21:21:43.403Z,22.70
2022-10-31T21:26:52.563Z,17.95
2022-10-31T21:29:21.069Z,20.42
2022-10-31T21:31:49.153Z,20.35
2022-10-31T21:34:17.151Z,16.13
2022-10-31T21:36:45.055Z,17.13
2022-10-31T21:39:12.614Z,28.30
2022-10-31T21:41:39.872Z,22.73
2022-10-31T21:44:07.117Z,22.63
2022-10-31T21:46:34.858Z,35.00
2022-10-31T21:49:04.366Z,37.17
2022-10-31T21:51:34.343Z,42.03
2022-10-31T21:54:21.503Z,35.75
2022-10-31T21:56:49.481Z,22.45
2022-10-31T21:59:16.799Z,46.13
2022-10-31T22:01:44.276Z,35.60
2022-10-31T22:04:11.860Z,48.33
2022-10-31T22:06:39.286Z,56.00
2022-10-31T22:09:10.687Z,24.45
2022-10-31T22:11:39.494Z,22.70
2022-10-31T22:14:07.355Z,22.13
2022-10-31T22:16:36.875Z,58.97
2022-10-31T22:19:06.314Z,22.35
2022-10-31T22:21:42.247Z,71.82
2022-10-31T22:24:10.973Z,62.65
2022-10-31T22:26:39.643Z,57.08
2022-10-31T22:29:12.230Z,22.35
2022-10-31T22:31:43.212Z,21.60
2022-10-31T22:34:11.572Z,26.10
2022-10-31T22:36:39.378Z,24.38
2022-10-31T22:39:07.470Z,92.70
2022-10-31T22:41:36.432Z,34.60
2022-10-31T22:44:05.472Z,20.77
2022-10-31T22:46:36.988Z,22.67
2022-10-31T22:49:14.709Z,46.53
2022-10-31T22:51:43.387Z,65.63
2022-10-31T22:54:18.922Z,126.10
2022-10-31T22:56:46.697Z,142.35
2022-10-31T22:59:16.209Z,206.80
2022-10-31T23:01:47.563Z,305.38
2022-10-31T23:04:16.969Z,187.13
2022-10-31T23:06:44.717Z,141.88
2022-10-31T23:09:16.132Z,59.35
2022-10-31T23:11:44.483Z,208.77
2022-10-31T23:14:18.747Z,92.25
2022-10-31T23:16:53.538Z,192.75
2022-10-31T23:19:27.844Z,104.43
2022-10-31T23:22:03.135Z,159.77
2022-10-31T23:24:40.597Z,115.00
2022-10-31T23:27:29.265Z,139.77
2022-10-31T23:29:59.364Z,116.55
2022-10-31T23:32:37.036Z,85.35
2022-10-31T23:35:09.164Z,246.75
2022-10-31T23:37:38.711Z,328.13
2022-10-31T23:40:08.851Z,191.93
2022-10-31T23:42:36.480Z,145.73
2022-10-31T23:45:03.929Z,233.10
2022-10-31T23:47:31.303Z,264.90
2022-10-31T23:49:58.482Z,133.73
2022-10-31T23:52:25.953Z,152.93
2022-10-31T23:54:53.299Z,243.43
2022-10-31T23:57:20.568Z,174.40
2022-10-31T23:59:48.041Z,203.48
